Avon, Colorado
Current Conditions -  °F | °C
As of 5:35 AM on Monday 24 Nov 2014 (Local Time) from KEGE Reporting Station
Overcast Overcast  
Wind Chill: 12°   Ceiling: 6000
Heat Index: 23°   Visibility: 10mi
Dew Point: 18°   Wind: 12mph
Humidity: 80%   Direction: 260°W
Pressure: 30.06"   Gusts: NA
Location:  39.63°N, 106.52°W
Report Text: KEGE 241235Z AUTO 26010KT 10SM BKN060 OVC070 M05/M08 A3006 RMK AO1
Loading
Personal Weather Stations






























Interactive Weather Map New forecast layout! Learn more

10-Day Weather Forecast

Advertisements
Track Severe Weather on mobile